Terminal Aerodrome Forecast
Issued by NWS

Home | Current Version | Previous Version | Text Only | Print | Product List | Glossary On
Versions: 1 2 3 4 5 6 7 8 9 10 11 12 13 14 15 16 17 18 19 20 21 22
330
FTUS46 KSGX 232109 AAA
TAFPSP
TAF AMD
KPSP 232109Z 2321/2418 33013G22KT P6SM -SHRA VCTS SCT030CB BKN050
      TEMPO 2322/2324 2SM +SHRA BKN025
     FM240300 35007KT P6SM SCT030 SCT050=

USA.gov is the U.S. government's official web portal to all federal, state and local government web resources and services.